sensor_id;sensor_type;location;lat;lon;timestamp;P1;durP1;ratioP1;P2;durP2;ratioP2
22924;SDS011;11628;51.072;3.712;2024-02-21T00:00:48;7.28;;;3.50;;
22924;SDS011;11628;51.072;3.712;2024-02-21T00:03:14;7.47;;;3.80;;
22924;SDS011;11628;51.072;3.712;2024-02-21T00:05:42;8.63;;;3.72;;
22924;SDS011;11628;51.072;3.712;2024-02-21T00:08:11;7.95;;;3.70;;
22924;SDS011;11628;51.072;3.712;2024-02-21T00:10:36;7.75;;;3.55;;
22924;SDS011;11628;51.072;3.712;2024-02-21T00:13:07;10.75;;;3.42;;
22924;SDS011;11628;51.072;3.712;2024-02-21T00:15:33;7.28;;;3.30;;
22924;SDS011;11628;51.072;3.712;2024-02-21T00:18:02;6.53;;;3.07;;
22924;SDS011;11628;51.072;3.712;2024-02-21T00:20:28;6.55;;;3.08;;
22924;SDS011;11628;51.072;3.712;2024-02-21T00:22:56;6.65;;;2.90;;
22924;SDS011;11628;51.072;3.712;2024-02-21T00:25:21;6.80;;;3.40;;
22924;SDS011;11628;51.072;3.712;2024-02-21T00:27:47;5.78;;;3.55;;
22924;SDS011;11628;51.072;3.712;2024-02-21T00:30:15;5.00;;;3.43;;
22924;SDS011;11628;51.072;3.712;2024-02-21T00:32:41;5.65;;;3.30;;
22924;SDS011;11628;51.072;3.712;2024-02-21T00:35:07;6.57;;;3.22;;
22924;SDS011;11628;51.072;3.712;2024-02-21T00:37:33;5.70;;;3.40;;
22924;SDS011;11628;51.072;3.712;2024-02-21T00:40:03;7.43;;;3.78;;
22924;SDS011;11628;51.072;3.712;2024-02-21T00:42:32;7.57;;;4.47;;
22924;SDS011;11628;51.072;3.712;2024-02-21T00:45:00;7.22;;;4.00;;
22924;SDS011;11628;51.072;3.712;2024-02-21T00:47:26;8.13;;;4.00;;
22924;SDS011;11628;51.072;3.712;2024-02-21T00:49:54;8.10;;;4.22;;
22924;SDS011;11628;51.072;3.712;2024-02-21T00:52:22;8.20;;;4.70;;
22924;SDS011;11628;51.072;3.712;2024-02-21T00:54:47;7.55;;;4.80;;
22924;SDS011;11628;51.072;3.712;2024-02-21T00:57:14;8.35;;;4.70;;
22924;SDS011;11628;51.072;3.712;2024-02-21T00:59:40;8.53;;;5.33;;
22924;SDS011;11628;51.072;3.712;2024-02-21T01:02:08;11.60;;;6.30;;
22924;SDS011;11628;51.072;3.712;2024-02-21T01:04:34;11.77;;;6.10;;
22924;SDS011;11628;51.072;3.712;2024-02-21T01:07:00;9.65;;;6.65;;
22924;SDS011;11628;51.072;3.712;2024-02-21T01:09:26;12.65;;;7.15;;
22924;SDS011;11628;51.072;3.712;2024-02-21T01:11:51;14.77;;;7.30;;
22924;SDS011;11628;51.072;3.712;2024-02-21T01:14:17;12.98;;;7.72;;
22924;SDS011;11628;51.072;3.712;2024-02-21T01:16:43;15.67;;;7.67;;
22924;SDS011;11628;51.072;3.712;2024-02-21T01:19:10;14.33;;;7.90;;
22924;SDS011;11628;51.072;3.712;2024-02-21T01:21:36;18.08;;;8.50;;
22924;SDS011;11628;51.072;3.712;2024-02-21T01:24:04;15.95;;;8.63;;
22924;SDS011;11628;51.072;3.712;2024-02-21T01:26:33;15.80;;;8.75;;
22924;SDS011;11628;51.072;3.712;2024-02-21T01:29:01;16.05;;;8.95;;
22924;SDS011;11628;51.072;3.712;2024-02-21T01:31:27;17.92;;;9.23;;
22924;SDS011;11628;51.072;3.712;2024-02-21T01:33:52;16.10;;;8.35;;
22924;SDS011;11628;51.072;3.712;2024-02-21T01:36:18;17.13;;;9.05;;
22924;SDS011;11628;51.072;3.712;2024-02-21T01:38:44;17.83;;;8.67;;
22924;SDS011;11628;51.072;3.712;2024-02-21T01:41:09;16.53;;;9.17;;
22924;SDS011;11628;51.072;3.712;2024-02-21T01:43:35;17.10;;;9.68;;
22924;SDS011;11628;51.072;3.712;2024-02-21T01:46:03;19.52;;;9.10;;
22924;SDS011;11628;51.072;3.712;2024-02-21T01:48:29;18.63;;;9.30;;
22924;SDS011;11628;51.072;3.712;2024-02-21T01:50:55;16.35;;;8.77;;
22924;SDS011;11628;51.072;3.712;2024-02-21T01:53:27;17.13;;;8.57;;
22924;SDS011;11628;51.072;3.712;2024-02-21T01:55:55;19.77;;;9.40;;
22924;SDS011;11628;51.072;3.712;2024-02-21T01:58:21;16.20;;;8.85;;
22924;SDS011;11628;51.072;3.712;2024-02-21T02:00:48;19.38;;;9.15;;
22924;SDS011;11628;51.072;3.712;2024-02-21T02:03:17;17.65;;;8.57;;
22924;SDS011;11628;51.072;3.712;2024-02-21T02:05:46;18.48;;;8.95;;
22924;SDS011;11628;51.072;3.712;2024-02-21T02:08:16;17.57;;;8.70;;
22924;SDS011;11628;51.072;3.712;2024-02-21T02:10:47;17.42;;;8.88;;
22924;SDS011;11628;51.072;3.712;2024-02-21T02:13:13;17.50;;;8.60;;
22924;SDS011;11628;51.072;3.712;2024-02-21T02:15:44;19.50;;;9.48;;
22924;SDS011;11628;51.072;3.712;2024-02-21T02:18:14;16.60;;;8.50;;
22924;SDS011;11628;51.072;3.712;2024-02-21T02:20:41;16.20;;;8.23;;
22924;SDS011;11628;51.072;3.712;2024-02-21T02:23:10;19.33;;;8.50;;
22924;SDS011;11628;51.072;3.712;2024-02-21T02:26:01;17.58;;;8.10;;
22924;SDS011;11628;51.072;3.712;2024-02-21T02:28:27;18.83;;;8.17;;
22924;SDS011;11628;51.072;3.712;2024-02-21T02:30:53;18.73;;;8.55;;
22924;SDS011;11628;51.072;3.712;2024-02-21T02:33:19;17.40;;;8.53;;
22924;SDS011;11628;51.072;3.712;2024-02-21T02:35:47;17.40;;;7.88;;
22924;SDS011;11628;51.072;3.712;2024-02-21T02:38:15;20.87;;;8.00;;
22924;SDS011;11628;51.072;3.712;2024-02-21T02:40:45;19.33;;;8.30;;
22924;SDS011;11628;51.072;3.712;2024-02-21T02:43:13;17.65;;;7.65;;
22924;SDS011;11628;51.072;3.712;2024-02-21T02:45:39;19.20;;;8.38;;
22924;SDS011;11628;51.072;3.712;2024-02-21T02:48:07;18.30;;;8.23;;
22924;SDS011;11628;51.072;3.712;2024-02-21T02:50:33;18.70;;;7.90;;
22924;SDS011;11628;51.072;3.712;2024-02-21T02:53:01;16.00;;;7.90;;
22924;SDS011;11628;51.072;3.712;2024-02-21T02:55:28;18.48;;;8.82;;
22924;SDS011;11628;51.072;3.712;2024-02-21T02:57:54;18.48;;;8.00;;
22924;SDS011;11628;51.072;3.712;2024-02-21T03:00:22;23.60;;;8.40;;
22924;SDS011;11628;51.072;3.712;2024-02-21T03:02:48;20.83;;;8.70;;
22924;SDS011;11628;51.072;3.712;2024-02-21T03:05:15;18.95;;;8.38;;
22924;SDS011;11628;51.072;3.712;2024-02-21T03:07:47;20.88;;;9.45;;
22924;SDS011;11628;51.072;3.712;2024-02-21T03:10:14;22.55;;;8.60;;
22924;SDS011;11628;51.072;3.712;2024-02-21T03:12:41;18.88;;;8.43;;
22924;SDS011;11628;51.072;3.712;2024-02-21T03:15:11;19.43;;;8.57;;
22924;SDS011;11628;51.072;3.712;2024-02-21T03:17:37;23.17;;;9.77;;
22924;SDS011;11628;51.072;3.712;2024-02-21T03:20:03;23.02;;;9.23;;
22924;SDS011;11628;51.072;3.712;2024-02-21T03:22:30;18.60;;;8.55;;
22924;SDS011;11628;51.072;3.712;2024-02-21T03:24:57;21.35;;;9.07;;
22924;SDS011;11628;51.072;3.712;2024-02-21T03:27:23;20.10;;;8.60;;
22924;SDS011;11628;51.072;3.712;2024-02-21T03:29:48;20.60;;;9.20;;
22924;SDS011;11628;51.072;3.712;2024-02-21T03:32:16;23.35;;;9.23;;
22924;SDS011;11628;51.072;3.712;2024-02-21T03:34:44;20.83;;;8.90;;
22924;SDS011;11628;51.072;3.712;2024-02-21T03:37:12;21.75;;;9.32;;
22924;SDS011;11628;51.072;3.712;2024-02-21T03:39:41;19.27;;;9.18;;
22924;SDS011;11628;51.072;3.712;2024-02-21T03:42:07;21.50;;;9.57;;
22924;SDS011;11628;51.072;3.712;2024-02-21T03:44:34;25.98;;;9.98;;
22924;SDS011;11628;51.072;3.712;2024-02-21T03:47:00;21.33;;;9.80;;
22924;SDS011;11628;51.072;3.712;2024-02-21T03:49:26;23.67;;;10.07;;
22924;SDS011;11628;51.072;3.712;2024-02-21T03:51:52;20.95;;;9.32;;
22924;SDS011;11628;51.072;3.712;2024-02-21T03:54:18;21.17;;;10.40;;
22924;SDS011;11628;51.072;3.712;2024-02-21T03:56:44;21.75;;;9.77;;
22924;SDS011;11628;51.072;3.712;2024-02-21T03:59:10;20.67;;;10.07;;
22924;SDS011;11628;51.072;3.712;2024-02-21T04:01:35;19.98;;;9.23;;
22924;SDS011;11628;51.072;3.712;2024-02-21T04:04:01;21.10;;;10.32;;
22924;SDS011;11628;51.072;3.712;2024-02-21T04:06:27;19.33;;;9.73;;
22924;SDS011;11628;51.072;3.712;2024-02-21T04:08:58;20.58;;;9.70;;
22924;SDS011;11628;51.072;3.712;2024-02-21T04:11:23;22.75;;;10.20;;
22924;SDS011;11628;51.072;3.712;2024-02-21T04:13:49;20.50;;;10.10;;
22924;SDS011;11628;51.072;3.712;2024-02-21T04:16:16;19.03;;;9.90;;
22924;SDS011;11628;51.072;3.712;2024-02-21T04:18:42;22.95;;;10.45;;
22924;SDS011;11628;51.072;3.712;2024-02-21T04:21:08;19.58;;;9.90;;
22924;SDS011;11628;51.072;3.712;2024-02-21T04:23:35;23.23;;;11.30;;
22924;SDS011;11628;51.072;3.712;2024-02-21T04:26:02;21.17;;;10.60;;
22924;SDS011;11628;51.072;3.712;2024-02-21T04:28:30;17.77;;;10.40;;
22924;SDS011;11628;51.072;3.712;2024-02-21T04:30:59;21.77;;;11.65;;
22924;SDS011;11628;51.072;3.712;2024-02-21T04:33:25;21.92;;;11.07;;
22924;SDS011;11628;51.072;3.712;2024-02-21T04:35:50;20.30;;;10.87;;
22924;SDS011;11628;51.072;3.712;2024-02-21T04:38:19;20.70;;;11.85;;
22924;SDS011;11628;51.072;3.712;2024-02-21T04:40:45;22.87;;;11.67;;
22924;SDS011;11628;51.072;3.712;2024-02-21T04:43:11;19.27;;;11.15;;
22924;SDS011;11628;51.072;3.712;2024-02-21T04:45:37;20.42;;;11.25;;
22924;SDS011;11628;51.072;3.712;2024-02-21T04:48:03;19.63;;;11.60;;
22924;SDS011;11628;51.072;3.712;2024-02-21T04:50:31;24.33;;;12.23;;
22924;SDS011;11628;51.072;3.712;2024-02-21T04:52:57;22.50;;;11.55;;
22924;SDS011;11628;51.072;3.712;2024-02-21T04:55:22;20.93;;;11.30;;
22924;SDS011;11628;51.072;3.712;2024-02-21T04:57:48;22.58;;;12.27;;
22924;SDS011;11628;51.072;3.712;2024-02-21T05:00:14;21.63;;;11.57;;
22924;SDS011;11628;51.072;3.712;2024-02-21T05:02:45;22.75;;;12.25;;
22924;SDS011;11628;51.072;3.712;2024-02-21T05:05:11;20.50;;;11.60;;
22924;SDS011;11628;51.072;3.712;2024-02-21T05:07:36;20.60;;;12.00;;
22924;SDS011;11628;51.072;3.712;2024-02-21T05:10:06;18.52;;;11.15;;
22924;SDS011;11628;51.072;3.712;2024-02-21T05:12:32;21.95;;;12.00;;
22924;SDS011;11628;51.072;3.712;2024-02-21T05:14:58;17.93;;;11.20;;
22924;SDS011;11628;51.072;3.712;2024-02-21T05:17:24;18.93;;;11.17;;
22924;SDS011;11628;51.072;3.712;2024-02-21T05:19:51;20.02;;;12.40;;
22924;SDS011;11628;51.072;3.712;2024-02-21T05:22:17;19.67;;;11.57;;
22924;SDS011;11628;51.072;3.712;2024-02-21T05:24:43;17.13;;;11.57;;
22924;SDS011;11628;51.072;3.712;2024-02-21T05:27:08;19.47;;;11.60;;
22924;SDS011;11628;51.072;3.712;2024-02-21T05:29:36;16.17;;;10.90;;
22924;SDS011;11628;51.072;3.712;2024-02-21T05:32:02;19.05;;;11.73;;
22924;SDS011;11628;51.072;3.712;2024-02-21T05:34:28;17.83;;;11.20;;
22924;SDS011;11628;51.072;3.712;2024-02-21T05:36:56;18.92;;;11.85;;
22924;SDS011;11628;51.072;3.712;2024-02-21T05:39:26;16.65;;;11.43;;
22924;SDS011;11628;51.072;3.712;2024-02-21T05:41:54;18.17;;;12.48;;
22924;SDS011;11628;51.072;3.712;2024-02-21T05:44:20;19.63;;;12.45;;
22924;SDS011;11628;51.072;3.712;2024-02-21T05:46:47;19.95;;;11.85;;
22924;SDS011;11628;51.072;3.712;2024-02-21T05:49:15;18.90;;;11.70;;
22924;SDS011;11628;51.072;3.712;2024-02-21T05:51:40;19.20;;;11.43;;
22924;SDS011;11628;51.072;3.712;2024-02-21T05:54:06;17.65;;;11.80;;
22924;SDS011;11628;51.072;3.712;2024-02-21T05:56:34;19.42;;;12.27;;
22924;SDS011;11628;51.072;3.712;2024-02-21T05:59:00;21.55;;;12.07;;
22924;SDS011;11628;51.072;3.712;2024-02-21T06:01:27;18.83;;;12.52;;
22924;SDS011;11628;51.072;3.712;2024-02-21T06:03:57;16.25;;;11.70;;
22924;SDS011;11628;51.072;3.712;2024-02-21T06:06:28;18.27;;;12.20;;
22924;SDS011;11628;51.072;3.712;2024-02-21T06:08:58;17.65;;;12.40;;
22924;SDS011;11628;51.072;3.712;2024-02-21T06:11:24;18.58;;;12.82;;
22924;SDS011;11628;51.072;3.712;2024-02-21T06:13:52;18.98;;;11.95;;
22924;SDS011;11628;51.072;3.712;2024-02-21T06:16:17;19.20;;;12.50;;
22924;SDS011;11628;51.072;3.712;2024-02-21T06:18:43;18.48;;;12.25;;
22924;SDS011;11628;51.072;3.712;2024-02-21T06:21:09;19.45;;;12.40;;
22924;SDS011;11628;51.072;3.712;2024-02-21T06:23:36;17.60;;;13.10;;
22924;SDS011;11628;51.072;3.712;2024-02-21T06:26:02;19.75;;;13.50;;
22924;SDS011;11628;51.072;3.712;2024-02-21T06:28:33;18.90;;;13.07;;
22924;SDS011;11628;51.072;3.712;2024-02-21T06:30:58;20.05;;;13.63;;
22924;SDS011;11628;51.072;3.712;2024-02-21T06:33:26;21.25;;;13.93;;
22924;SDS011;11628;51.072;3.712;2024-02-21T06:35:52;17.17;;;13.77;;
22924;SDS011;11628;51.072;3.712;2024-02-21T06:38:25;22.02;;;14.68;;
22924;SDS011;11628;51.072;3.712;2024-02-21T06:40:51;21.65;;;13.55;;
22924;SDS011;11628;51.072;3.712;2024-02-21T06:43:17;19.02;;;13.90;;
22924;SDS011;11628;51.072;3.712;2024-02-21T06:45:48;21.90;;;14.35;;
22924;SDS011;11628;51.072;3.712;2024-02-21T06:48:16;22.35;;;14.70;;
22924;SDS011;11628;51.072;3.712;2024-02-21T06:50:43;19.95;;;14.77;;
22924;SDS011;11628;51.072;3.712;2024-02-21T06:53:09;20.05;;;14.52;;
22924;SDS011;11628;51.072;3.712;2024-02-21T06:55:35;23.05;;;14.68;;
22924;SDS011;11628;51.072;3.712;2024-02-21T06:58:03;20.73;;;14.98;;
22924;SDS011;11628;51.072;3.712;2024-02-21T07:00:33;19.63;;;14.50;;
22924;SDS011;11628;51.072;3.712;2024-02-21T07:02:59;19.20;;;13.97;;
22924;SDS011;11628;51.072;3.712;2024-02-21T07:05:24;20.67;;;14.93;;
22924;SDS011;11628;51.072;3.712;2024-02-21T07:07:50;21.02;;;14.23;;
22924;SDS011;11628;51.072;3.712;2024-02-21T07:10:16;20.17;;;13.97;;
22924;SDS011;11628;51.072;3.712;2024-02-21T07:12:42;19.07;;;14.03;;
22924;SDS011;11628;51.072;3.712;2024-02-21T07:15:08;19.02;;;14.20;;
22924;SDS011;11628;51.072;3.712;2024-02-21T07:17:36;18.55;;;14.55;;
22924;SDS011;11628;51.072;3.712;2024-02-21T07:20:04;20.70;;;13.65;;
22924;SDS011;11628;51.072;3.712;2024-02-21T07:22:33;20.33;;;13.00;;
22924;SDS011;11628;51.072;3.712;2024-02-21T07:24:58;19.08;;;12.95;;
22924;SDS011;11628;51.072;3.712;2024-02-21T07:27:24;18.77;;;12.70;;
22924;SDS011;11628;51.072;3.712;2024-02-21T07:29:53;17.75;;;12.70;;
22924;SDS011;11628;51.072;3.712;2024-02-21T07:32:19;19.38;;;13.10;;
22924;SDS011;11628;51.072;3.712;2024-02-21T07:34:47;20.38;;;13.00;;
22924;SDS011;11628;51.072;3.712;2024-02-21T07:37:12;19.05;;;12.80;;
22924;SDS011;11628;51.072;3.712;2024-02-21T07:39:40;18.63;;;13.10;;
22924;SDS011;11628;51.072;3.712;2024-02-21T07:42:06;18.67;;;12.90;;
22924;SDS011;11628;51.072;3.712;2024-02-21T07:44:32;18.05;;;13.23;;
22924;SDS011;11628;51.072;3.712;2024-02-21T07:46:59;18.00;;;13.03;;
22924;SDS011;11628;51.072;3.712;2024-02-21T07:49:27;18.95;;;13.38;;
22924;SDS011;11628;51.072;3.712;2024-02-21T07:51:53;17.07;;;13.40;;
22924;SDS011;11628;51.072;3.712;2024-02-21T07:54:23;18.23;;;13.13;;
22924;SDS011;11628;51.072;3.712;2024-02-21T07:56:48;16.63;;;12.98;;
22924;SDS011;11628;51.072;3.712;2024-02-21T07:59:16;20.10;;;13.98;;
22924;SDS011;11628;51.072;3.712;2024-02-21T08:01:44;18.27;;;12.90;;
22924;SDS011;11628;51.072;3.712;2024-02-21T08:04:10;19.90;;;14.23;;
22924;SDS011;11628;51.072;3.712;2024-02-21T08:06:35;20.63;;;14.77;;
22924;SDS011;11628;51.072;3.712;2024-02-21T08:09:01;17.33;;;14.15;;
22924;SDS011;11628;51.072;3.712;2024-02-21T08:11:27;19.77;;;14.00;;
22924;SDS011;11628;51.072;3.712;2024-02-21T08:13:55;17.70;;;14.02;;
22924;SDS011;11628;51.072;3.712;2024-02-21T08:16:21;19.38;;;14.00;;
22924;SDS011;11628;51.072;3.712;2024-02-21T08:18:46;30.15;;;14.10;;
22924;SDS011;11628;51.072;3.712;2024-02-21T08:21:14;17.53;;;13.40;;
22924;SDS011;11628;51.072;3.712;2024-02-21T08:23:42;16.23;;;13.15;;
22924;SDS011;11628;51.072;3.712;2024-02-21T08:26:08;17.17;;;13.25;;
22924;SDS011;11628;51.072;3.712;2024-02-21T08:28:34;17.55;;;13.77;;
22924;SDS011;11628;51.072;3.712;2024-02-21T08:30:59;17.70;;;13.27;;
22924;SDS011;11628;51.072;3.712;2024-02-21T08:33:25;18.57;;;12.83;;
22924;SDS011;11628;51.072;3.712;2024-02-21T08:35:53;19.73;;;13.17;;
22924;SDS011;11628;51.072;3.712;2024-02-21T08:38:21;19.17;;;13.52;;
22924;SDS011;11628;51.072;3.712;2024-02-21T08:40:49;17.00;;;12.90;;
22924;SDS011;11628;51.072;3.712;2024-02-21T08:43:15;19.15;;;13.02;;
22924;SDS011;11628;51.072;3.712;2024-02-21T08:45:43;17.37;;;13.10;;
22924;SDS011;11628;51.072;3.712;2024-02-21T08:48:11;17.48;;;12.90;;
22924;SDS011;11628;51.072;3.712;2024-02-21T08:50:36;22.03;;;11.80;;
22924;SDS011;11628;51.072;3.712;2024-02-21T08:53:05;15.97;;;12.23;;
22924;SDS011;11628;51.072;3.712;2024-02-21T08:55:32;20.35;;;13.68;;
22924;SDS011;11628;51.072;3.712;2024-02-21T08:58:00;20.27;;;13.05;;
22924;SDS011;11628;51.072;3.712;2024-02-21T09:00:26;16.53;;;12.00;;
22924;SDS011;11628;51.072;3.712;2024-02-21T09:02:52;16.03;;;12.77;;
22924;SDS011;11628;51.072;3.712;2024-02-21T09:05:18;17.95;;;11.88;;
22924;SDS011;11628;51.072;3.712;2024-02-21T09:07:43;19.47;;;13.03;;
22924;SDS011;11628;51.072;3.712;2024-02-21T09:10:09;17.73;;;12.53;;
22924;SDS011;11628;51.072;3.712;2024-02-21T09:12:35;18.05;;;12.30;;
22924;SDS011;11628;51.072;3.712;2024-02-21T09:15:03;18.50;;;11.73;;
22924;SDS011;11628;51.072;3.712;2024-02-21T09:17:29;18.00;;;11.95;;
22924;SDS011;11628;51.072;3.712;2024-02-21T09:19:54;16.53;;;13.00;;
22924;SDS011;11628;51.072;3.712;2024-02-21T09:22:26;16.90;;;11.98;;
22924;SDS011;11628;51.072;3.712;2024-02-21T09:24:54;18.98;;;11.90;;
22924;SDS011;11628;51.072;3.712;2024-02-21T09:27:20;15.40;;;10.47;;
22924;SDS011;11628;51.072;3.712;2024-02-21T09:29:50;14.27;;;11.53;;
22924;SDS011;11628;51.072;3.712;2024-02-21T09:32:16;17.13;;;10.63;;
22924;SDS011;11628;51.072;3.712;2024-02-21T09:34:41;16.43;;;11.47;;
22924;SDS011;11628;51.072;3.712;2024-02-21T09:37:07;15.20;;;10.80;;
22924;SDS011;11628;51.072;3.712;2024-02-21T09:39:33;18.52;;;11.48;;
22924;SDS011;11628;51.072;3.712;2024-02-21T09:41:59;17.70;;;11.67;;
22924;SDS011;11628;51.072;3.712;2024-02-21T09:44:36;16.92;;;11.55;;
22924;SDS011;11628;51.072;3.712;2024-02-21T09:47:12;16.63;;;10.48;;
22924;SDS011;11628;51.072;3.712;2024-02-21T09:49:42;15.75;;;10.25;;
22924;SDS011;11628;51.072;3.712;2024-02-21T09:52:11;17.73;;;10.63;;
22924;SDS011;11628;51.072;3.712;2024-02-21T09:54:43;15.73;;;10.37;;
22924;SDS011;11628;51.072;3.712;2024-02-21T09:57:10;14.82;;;10.07;;
22924;SDS011;11628;51.072;3.712;2024-02-21T09:59:37;14.02;;;9.60;;
22924;SDS011;11628;51.072;3.712;2024-02-21T10:02:05;17.70;;;9.87;;
22924;SDS011;11628;51.072;3.712;2024-02-21T10:04:31;15.32;;;9.85;;
22924;SDS011;11628;51.072;3.712;2024-02-21T10:06:59;16.35;;;9.80;;
22924;SDS011;11628;51.072;3.712;2024-02-21T10:09:30;16.17;;;9.40;;
22924;SDS011;11628;51.072;3.712;2024-02-21T10:11:56;11.90;;;9.30;;
22924;SDS011;11628;51.072;3.712;2024-02-21T10:14:35;12.98;;;9.55;;
22924;SDS011;11628;51.072;3.712;2024-02-21T10:17:00;15.00;;;9.50;;
22924;SDS011;11628;51.072;3.712;2024-02-21T10:19:27;14.50;;;9.52;;
22924;SDS011;11628;51.072;3.712;2024-02-21T10:21:59;13.53;;;9.30;;
22924;SDS011;11628;51.072;3.712;2024-02-21T10:24:28;10.80;;;8.27;;
22924;SDS011;11628;51.072;3.712;2024-02-21T10:27:04;14.93;;;8.82;;
22924;SDS011;11628;51.072;3.712;2024-02-21T10:29:33;10.40;;;7.67;;
22924;SDS011;11628;51.072;3.712;2024-02-21T10:34:36;11.10;;;7.50;;
22924;SDS011;11628;51.072;3.712;2024-02-21T10:37:03;12.45;;;7.88;;
22924;SDS011;11628;51.072;3.712;2024-02-21T10:39:31;11.87;;;7.40;;
22924;SDS011;11628;51.072;3.712;2024-02-21T10:42:00;9.32;;;7.05;;
22924;SDS011;11628;51.072;3.712;2024-02-21T10:44:30;11.52;;;7.53;;
22924;SDS011;11628;51.072;3.712;2024-02-21T10:47:03;12.23;;;8.13;;
22924;SDS011;11628;51.072;3.712;2024-02-21T10:49:33;12.10;;;8.73;;
22924;SDS011;11628;51.072;3.712;2024-02-21T10:52:25;12.82;;;9.40;;
22924;SDS011;11628;51.072;3.712;2024-02-21T10:55:25;14.82;;;11.13;;
22924;SDS011;11628;51.072;3.712;2024-02-21T10:57:58;13.15;;;9.63;;
22924;SDS011;11628;51.072;3.712;2024-02-21T11:00:24;12.32;;;10.38;;
22924;SDS011;11628;51.072;3.712;2024-02-21T11:02:56;13.98;;;10.02;;
22924;SDS011;11628;51.072;3.712;2024-02-21T11:05:25;13.83;;;10.40;;
22924;SDS011;11628;51.072;3.712;2024-02-21T11:07:52;11.50;;;10.35;;
22924;SDS011;11628;51.072;3.712;2024-02-21T11:10:25;12.38;;;9.73;;
22924;SDS011;11628;51.072;3.712;2024-02-21T11:13:07;13.45;;;9.55;;
22924;SDS011;11628;51.072;3.712;2024-02-21T11:15:36;13.25;;;9.70;;
22924;SDS011;11628;51.072;3.712;2024-02-21T11:18:02;12.75;;;8.10;;
22924;SDS011;11628;51.072;3.712;2024-02-21T11:20:37;12.37;;;8.30;;
22924;SDS011;11628;51.072;3.712;2024-02-21T11:23:05;13.07;;;9.00;;
22924;SDS011;11628;51.072;3.712;2024-02-21T11:25:31;13.23;;;9.23;;
22924;SDS011;11628;51.072;3.712;2024-02-21T11:27:59;12.23;;;8.68;;
22924;SDS011;11628;51.072;3.712;2024-02-21T11:30:31;12.90;;;8.70;;
22924;SDS011;11628;51.072;3.712;2024-02-21T11:33:03;11.15;;;8.95;;
22924;SDS011;11628;51.072;3.712;2024-02-21T11:35:31;11.18;;;8.43;;
22924;SDS011;11628;51.072;3.712;2024-02-21T11:38:11;11.65;;;8.57;;
22924;SDS011;11628;51.072;3.712;2024-02-21T11:40:44;13.68;;;7.72;;
22924;SDS011;11628;51.072;3.712;2024-02-21T11:43:11;11.37;;;7.70;;
22924;SDS011;11628;51.072;3.712;2024-02-21T11:45:36;12.05;;;7.65;;
22924;SDS011;11628;51.072;3.712;2024-02-21T11:48:05;11.07;;;8.00;;
22924;SDS011;11628;51.072;3.712;2024-02-21T11:50:31;11.15;;;7.78;;
22924;SDS011;11628;51.072;3.712;2024-02-21T11:52:57;12.73;;;8.25;;
22924;SDS011;11628;51.072;3.712;2024-02-21T11:55:23;11.13;;;7.70;;
22924;SDS011;11628;51.072;3.712;2024-02-21T11:57:49;10.43;;;7.38;;
22924;SDS011;11628;51.072;3.712;2024-02-21T12:00:18;11.23;;;7.78;;
22924;SDS011;11628;51.072;3.712;2024-02-21T12:02:49;10.93;;;7.18;;
22924;SDS011;11628;51.072;3.712;2024-02-21T12:05:15;12.95;;;7.28;;
22924;SDS011;11628;51.072;3.712;2024-02-21T12:07:41;9.35;;;6.40;;
22924;SDS011;11628;51.072;3.712;2024-02-21T12:10:09;10.10;;;6.22;;
22924;SDS011;11628;51.072;3.712;2024-02-21T12:12:39;11.32;;;6.68;;
22924;SDS011;11628;51.072;3.712;2024-02-21T12:15:05;11.10;;;7.50;;
22924;SDS011;11628;51.072;3.712;2024-02-21T12:17:34;8.77;;;6.72;;
22924;SDS011;11628;51.072;3.712;2024-02-21T12:20:04;12.85;;;6.80;;
22924;SDS011;11628;51.072;3.712;2024-02-21T12:22:33;13.18;;;7.20;;
22924;SDS011;11628;51.072;3.712;2024-02-21T12:25:18;9.13;;;7.10;;
22924;SDS011;11628;51.072;3.712;2024-02-21T12:27:52;13.35;;;7.60;;
22924;SDS011;11628;51.072;3.712;2024-02-21T12:30:27;14.85;;;7.40;;
22924;SDS011;11628;51.072;3.712;2024-02-21T12:32:55;16.42;;;8.07;;
22924;SDS011;11628;51.072;3.712;2024-02-21T12:35:23;14.35;;;7.55;;
22924;SDS011;11628;51.072;3.712;2024-02-21T12:37:51;11.38;;;7.00;;
22924;SDS011;11628;51.072;3.712;2024-02-21T12:40:17;16.35;;;7.43;;
22924;SDS011;11628;51.072;3.712;2024-02-21T12:42:43;10.93;;;7.20;;
22924;SDS011;11628;51.072;3.712;2024-02-21T12:45:10;9.45;;;6.57;;
22924;SDS011;11628;51.072;3.712;2024-02-21T12:47:36;10.07;;;6.37;;
22924;SDS011;11628;51.072;3.712;2024-02-21T12:50:05;9.68;;;6.78;;
22924;SDS011;11628;51.072;3.712;2024-02-21T12:52:31;10.77;;;6.38;;
22924;SDS011;11628;51.072;3.712;2024-02-21T12:54:57;9.67;;;6.30;;
22924;SDS011;11628;51.072;3.712;2024-02-21T12:57:23;8.85;;;6.53;;
22924;SDS011;11628;51.072;3.712;2024-02-21T12:59:49;9.47;;;5.83;;
22924;SDS011;11628;51.072;3.712;2024-02-21T13:02:16;10.70;;;6.23;;
22924;SDS011;11628;51.072;3.712;2024-02-21T13:04:41;33.00;;;8.98;;
22924;SDS011;11628;51.072;3.712;2024-02-21T13:07:07;11.13;;;6.35;;
22924;SDS011;11628;51.072;3.712;2024-02-21T13:09:33;10.02;;;6.35;;
22924;SDS011;11628;51.072;3.712;2024-02-21T13:12:01;11.97;;;7.20;;
22924;SDS011;11628;51.072;3.712;2024-02-21T13:14:29;12.07;;;8.18;;
22924;SDS011;11628;51.072;3.712;2024-02-21T13:16:58;10.73;;;9.10;;
22924;SDS011;11628;51.072;3.712;2024-02-21T13:19:25;13.63;;;9.05;;
22924;SDS011;11628;51.072;3.712;2024-02-21T13:21:51;12.27;;;10.53;;
22924;SDS011;11628;51.072;3.712;2024-02-21T13:24:19;25.70;;;12.85;;
22924;SDS011;11628;51.072;3.712;2024-02-21T13:26:45;20.83;;;12.77;;
22924;SDS011;11628;51.072;3.712;2024-02-21T13:29:13;15.73;;;12.48;;
22924;SDS011;11628;51.072;3.712;2024-02-21T13:31:38;62.95;;;19.45;;
22924;SDS011;11628;51.072;3.712;2024-02-21T13:34:07;19.63;;;13.85;;
22924;SDS011;11628;51.072;3.712;2024-02-21T13:36:36;16.60;;;12.52;;
22924;SDS011;11628;51.072;3.712;2024-02-21T13:39:02;26.20;;;13.50;;
22924;SDS011;11628;51.072;3.712;2024-02-21T13:41:30;17.45;;;12.70;;
22924;SDS011;11628;51.072;3.712;2024-02-21T13:43:58;26.67;;;13.95;;
22924;SDS011;11628;51.072;3.712;2024-02-21T13:46:26;17.25;;;13.13;;
22924;SDS011;11628;51.072;3.712;2024-02-21T13:48:54;18.00;;;13.50;;
22924;SDS011;11628;51.072;3.712;2024-02-21T13:51:29;15.75;;;13.10;;
22924;SDS011;11628;51.072;3.712;2024-02-21T13:54:01;16.35;;;12.73;;
22924;SDS011;11628;51.072;3.712;2024-02-21T13:56:30;17.20;;;12.35;;
22924;SDS011;11628;51.072;3.712;2024-02-21T13:58:57;17.27;;;12.93;;
22924;SDS011;11628;51.072;3.712;2024-02-21T14:01:25;18.92;;;14.20;;
22924;SDS011;11628;51.072;3.712;2024-02-21T14:04:01;18.95;;;14.52;;
22924;SDS011;11628;51.072;3.712;2024-02-21T14:06:27;16.67;;;13.82;;
22924;SDS011;11628;51.072;3.712;2024-02-21T14:08:55;17.17;;;14.10;;
22924;SDS011;11628;51.072;3.712;2024-02-21T14:11:23;17.60;;;12.55;;
22924;SDS011;11628;51.072;3.712;2024-02-21T14:13:52;17.50;;;13.70;;
22924;SDS011;11628;51.072;3.712;2024-02-21T14:16:17;20.02;;;15.23;;
22924;SDS011;11628;51.072;3.712;2024-02-21T14:18:45;17.17;;;13.27;;
22924;SDS011;11628;51.072;3.712;2024-02-21T14:21:11;19.87;;;13.73;;
22924;SDS011;11628;51.072;3.712;2024-02-21T14:23:39;16.13;;;13.63;;
22924;SDS011;11628;51.072;3.712;2024-02-21T14:26:08;17.60;;;12.90;;
22924;SDS011;11628;51.072;3.712;2024-02-21T14:28:36;19.60;;;14.57;;
22924;SDS011;11628;51.072;3.712;2024-02-21T14:31:04;18.60;;;14.15;;
22924;SDS011;11628;51.072;3.712;2024-02-21T14:33:37;19.83;;;14.13;;